createdAt,value
2022-12-12T00:00:13.235Z,63.27
2022-12-12T00:01:44.496Z,60.45
2022-12-12T00:03:15.948Z,65.83
2022-12-12T00:04:47.255Z,64.19
2022-12-12T00:06:18.613Z,64.54
2022-12-12T00:07:49.987Z,62.69
2022-12-12T00:09:21.467Z,62.63
2022-12-12T00:10:52.715Z,62.21
2022-12-12T00:12:24.162Z,63.05
2022-12-12T00:13:55.354Z,62.30
2022-12-12T00:15:27.534Z,60.92
2022-12-12T00:16:58.942Z,61.53
2022-12-12T00:18:30.346Z,60.49
2022-12-12T00:20:01.629Z,61.53
2022-12-12T00:21:33.052Z,60.17
2022-12-12T00:23:05.109Z,60.49
2022-12-12T00:24:36.569Z,63.73
2022-12-12T00:26:07.880Z,58.87
2022-12-12T00:27:39.244Z,59.35
2022-12-12T00:29:10.550Z,56.41
2022-12-12T00:30:42.057Z,58.99
2022-12-12T00:32:13.172Z,55.30
2022-12-12T00:33:44.446Z,56.53
2022-12-12T00:35:15.687Z,57.20
2022-12-12T00:36:47.088Z,59.06
2022-12-12T00:38:18.525Z,59.78
2022-12-12T00:39:50.035Z,61.12
2022-12-12T00:41:21.426Z,58.51
2022-12-12T00:42:52.692Z,58.79
2022-12-12T00:44:24.067Z,59.58
2022-12-12T00:45:55.341Z,59.82
2022-12-12T00:47:26.679Z,58.59
2022-12-12T00:48:58.022Z,60.08
2022-12-12T00:50:29.268Z,58.21
2022-12-12T00:52:00.501Z,60.90
2022-12-12T00:53:31.728Z,60.17
2022-12-12T00:55:02.939Z,57.30
2022-12-12T00:56:39.452Z,56.70
2022-12-12T00:58:10.796Z,57.27
2022-12-12T00:59:41.962Z,60.16
2022-12-12T01:01:13.244Z,60.78
2022-12-12T01:02:44.578Z,59.46
2022-12-12T01:04:15.825Z,59.29
2022-12-12T01:05:47.181Z,59.47
2022-12-12T01:07:18.842Z,56.12
2022-12-12T01:08:50.045Z,59.72
2022-12-12T01:10:21.503Z,60.81
2022-12-12T01:11:52.754Z,59.50
2022-12-12T01:13:25.766Z,57.78
2022-12-12T01:14:57.102Z,56.64
2022-12-12T01:16:28.736Z,58.25
2022-12-12T01:18:05.009Z,58.67
2022-12-12T01:19:36.437Z,57.30
2022-12-12T01:21:07.797Z,55.81
2022-12-12T01:22:39.113Z,57.34
2022-12-12T01:24:10.333Z,58.35
2022-12-12T01:25:41.619Z,57.80
2022-12-12T01:27:13.212Z,56.55
2022-12-12T01:28:44.448Z,58.81
2022-12-12T01:30:15.827Z,59.40
2022-12-12T01:31:47.338Z,58.77
2022-12-12T01:33:18.694Z,60.76
2022-12-12T01:34:50.055Z,56.44
2022-12-12T01:36:21.272Z,56.35
2022-12-12T01:37:52.490Z,55.83
2022-12-12T01:39:23.956Z,59.14
2022-12-12T01:40:55.482Z,59.24
2022-12-12T01:42:26.749Z,61.98
2022-12-12T01:43:57.951Z,59.02
2022-12-12T01:45:29.187Z,59.72
2022-12-12T01:47:00.754Z,63.62
2022-12-12T01:48:37.009Z,62.63
2022-12-12T01:50:08.328Z,60.17
2022-12-12T01:51:39.963Z,61.09
2022-12-12T01:53:11.103Z,59.24
2022-12-12T01:54:42.356Z,59.89
2022-12-12T01:56:13.543Z,60.39
2022-12-12T01:57:44.919Z,61.26
2022-12-12T01:59:16.349Z,61.84
2022-12-12T02:00:48.015Z,60.40
2022-12-12T02:02:19.586Z,60.88
2022-12-12T02:03:50.943Z,60.14
2022-12-12T02:05:22.143Z,58.29
2022-12-12T02:06:53.352Z,60.80
2022-12-12T02:08:24.628Z,60.98
2022-12-12T02:09:55.940Z,58.09
2022-12-12T02:11:27.168Z,57.91
2022-12-12T02:12:58.688Z,57.30
2022-12-12T02:14:30.170Z,60.65
2022-12-12T02:16:01.527Z,59.30
2022-12-12T02:17:32.774Z,61.46
2022-12-12T02:19:04.057Z,60.28
2022-12-12T02:20:35.316Z,61.62
2022-12-12T02:22:06.801Z,60.76
2022-12-12T02:23:38.909Z,58.91
2022-12-12T02:25:10.568Z,61.65
2022-12-12T02:26:42.159Z,63.92
2022-12-12T02:28:13.478Z,60.99
2022-12-12T02:29:44.734Z,60.01
2022-12-12T02:31:16.001Z,62.35
2022-12-12T02:32:47.269Z,59.70
2022-12-12T02:34:18.924Z,58.71
2022-12-12T02:35:50.224Z,58.46
2022-12-12T02:37:21.655Z,58.09
2022-12-12T02:38:52.985Z,60.06
2022-12-12T02:40:24.723Z,58.93
2022-12-12T02:41:56.033Z,57.92
2022-12-12T02:43:27.575Z,57.99
2022-12-12T02:44:58.893Z,57.86
2022-12-12T02:46:30.670Z,59.82
2022-12-12T02:48:02.117Z,60.23
2022-12-12T02:49:33.347Z,57.36
2022-12-12T02:51:10.951Z,57.70
2022-12-12T02:52:42.386Z,57.82
2022-12-12T02:54:13.681Z,58.35
2022-12-12T02:55:44.933Z,57.99
2022-12-12T02:57:16.373Z,54.95
2022-12-12T02:58:47.998Z,54.18
2022-12-12T03:00:19.304Z,54.97
2022-12-12T03:01:50.543Z,54.96
2022-12-12T03:03:21.959Z,55.11
2022-12-12T03:04:53.206Z,55.07
2022-12-12T03:06:24.410Z,57.59
2022-12-12T03:07:55.657Z,57.72
2022-12-12T03:09:27.141Z,56.06
2022-12-12T03:10:58.360Z,52.87
2022-12-12T03:12:29.603Z,55.61
2022-12-12T03:14:01.089Z,55.62
2022-12-12T03:15:32.496Z,56.69
2022-12-12T03:17:03.731Z,53.90
2022-12-12T03:18:34.988Z,57.09
2022-12-12T03:20:06.170Z,55.66
2022-12-12T03:21:37.462Z,56.11
2022-12-12T03:23:08.704Z,55.62
2022-12-12T03:24:39.876Z,52.64
2022-12-12T03:26:11.249Z,52.50
2022-12-12T03:27:42.484Z,52.88
2022-12-12T03:29:14.003Z,54.88
2022-12-12T03:30:45.530Z,55.39
2022-12-12T03:32:17.273Z,55.86
2022-12-12T03:33:48.824Z,55.63
2022-12-12T03:35:20.114Z,55.83
2022-12-12T03:36:51.429Z,55.44
2022-12-12T03:38:22.660Z,56.34
2022-12-12T03:39:54.010Z,55.74
2022-12-12T03:41:25.483Z,56.53
2022-12-12T03:42:57.056Z,55.19
2022-12-12T03:44:28.321Z,55.75
2022-12-12T03:45:59.781Z,53.31
2022-12-12T03:47:30.949Z,54.41
2022-12-12T03:49:02.576Z,54.40
2022-12-12T03:50:33.876Z,56.86
2022-12-12T03:52:05.279Z,53.64
2022-12-12T03:53:36.541Z,55.54
2022-12-12T03:55:07.701Z,52.99
2022-12-12T03:56:38.829Z,54.17
2022-12-12T03:58:10.218Z,56.53
2022-12-12T03:59:41.457Z,55.71
2022-12-12T04:01:12.712Z,56.26
2022-12-12T04:02:44.120Z,56.48
2022-12-12T04:04:15.317Z,56.52
2022-12-12T04:05:46.809Z,56.36
2022-12-12T04:07:18.217Z,56.07
2022-12-12T04:08:49.536Z,55.24
2022-12-12T04:10:20.778Z,56.81
2022-12-12T04:11:52.102Z,56.42
2022-12-12T04:13:28.862Z,56.14
2022-12-12T04:15:02.997Z,56.12
2022-12-12T04:16:34.204Z,57.01
2022-12-12T04:18:05.332Z,55.54
2022-12-12T04:19:36.760Z,54.70
2022-12-12T04:21:08.099Z,58.03
2022-12-12T04:22:39.524Z,56.08
2022-12-12T04:24:15.933Z,54.67
2022-12-12T04:25:47.127Z,56.50
2022-12-12T04:27:18.614Z,52.57
2022-12-12T04:28:50.162Z,50.90
2022-12-12T04:30:21.484Z,53.48
2022-12-12T04:31:52.885Z,52.63
2022-12-12T04:33:24.315Z,54.75
2022-12-12T04:34:55.650Z,55.02
2022-12-12T04:36:26.828Z,55.25
2022-12-12T04:37:58.296Z,54.83
2022-12-12T04:39:29.685Z,55.00
2022-12-12T04:41:00.906Z,58.66
2022-12-12T04:42:32.132Z,54.72
2022-12-12T04:44:03.326Z,55.35
2022-12-12T04:45:34.582Z,53.30
2022-12-12T04:47:05.754Z,54.47
2022-12-12T04:48:38.427Z,54.73
2022-12-12T04:50:28.122Z,52.94
2022-12-12T04:51:59.868Z,53.89
2022-12-12T04:53:31.457Z,51.79
2022-12-12T04:55:20.605Z,51.11
2022-12-12T04:57:21.998Z,55.30
2022-12-12T04:58:53.242Z,51.75
2022-12-12T05:00:34.528Z,53.56
2022-12-12T05:02:05.858Z,54.78
2022-12-12T05:03:37.469Z,50.52
2022-12-12T05:05:08.795Z,53.38
2022-12-12T05:06:40.112Z,53.55
2022-12-12T05:08:11.733Z,52.94
2022-12-12T05:09:43.034Z,51.49
2022-12-12T05:11:14.370Z,52.34
2022-12-12T05:12:50.576Z,52.56
2022-12-12T05:14:21.784Z,50.71
2022-12-12T05:15:54.494Z,51.10
2022-12-12T05:17:25.698Z,51.65
2022-12-12T05:18:57.506Z,53.19
2022-12-12T05:20:28.860Z,50.32
2022-12-12T05:22:00.049Z,48.20
2022-12-12T05:23:34.595Z,50.65
2022-12-12T05:25:06.241Z,50.22
2022-12-12T05:26:37.396Z,51.90
2022-12-12T05:28:08.614Z,52.07
2022-12-12T05:29:40.069Z,51.89
2022-12-12T05:31:11.509Z,51.62
2022-12-12T05:32:42.843Z,51.62
2022-12-12T05:34:13.963Z,51.52
2022-12-12T05:35:46.194Z,51.70
2022-12-12T05:37:17.444Z,50.91
2022-12-12T05:38:48.747Z,52.33
2022-12-12T05:40:20.061Z,51.23
2022-12-12T05:41:51.315Z,52.86
2022-12-12T05:43:29.084Z,48.63
2022-12-12T05:47:43.744Z,48.32
2022-12-12T05:49:17.032Z,49.18
2022-12-12T05:50:48.826Z,47.90
2022-12-12T05:52:25.064Z,49.46
2022-12-12T05:53:56.551Z,49.70
2022-12-12T05:55:27.854Z,48.28
2022-12-12T05:56:59.279Z,47.94
2022-12-12T05:58:30.658Z,49.69
2022-12-12T06:00:02.302Z,48.11
2022-12-12T06:01:33.639Z,47.30
2022-12-12T06:03:04.896Z,49.02
2022-12-12T06:04:36.554Z,50.04
2022-12-12T06:06:08.010Z,48.80
2022-12-12T06:07:39.157Z,49.21
2022-12-12T06:09:10.336Z,49.31
2022-12-12T06:10:41.849Z,50.98
2022-12-12T06:12:18.053Z,48.32
2022-12-12T06:13:49.345Z,48.74
2022-12-12T06:15:20.704Z,49.49
2022-12-12T06:16:51.992Z,48.94
2022-12-12T06:18:23.382Z,51.18
2022-12-12T06:19:55.802Z,48.64
2022-12-12T06:21:27.130Z,47.63
2022-12-12T06:22:58.453Z,51.17
2022-12-12T06:24:29.650Z,48.60
2022-12-12T06:26:00.887Z,49.03
2022-12-12T06:27:32.407Z,47.90
2022-12-12T06:29:03.613Z,49.59
2022-12-12T06:30:34.755Z,50.12
2022-12-12T06:32:06.438Z,49.41
2022-12-12T06:33:37.756Z,47.81
2022-12-12T06:35:09.341Z,49.20
2022-12-12T06:36:40.648Z,48.78
2022-12-12T06:38:11.829Z,49.09
2022-12-12T06:39:42.968Z,49.28
2022-12-12T06:41:14.143Z,49.49
2022-12-12T06:42:48.178Z,48.19
2022-12-12T06:44:19.804Z,50.19
2022-12-12T06:45:51.221Z,50.00
2022-12-12T06:47:27.545Z,51.91
2022-12-12T06:48:58.697Z,52.10
2022-12-12T06:50:29.926Z,49.91
2022-12-12T06:52:01.153Z,49.79
2022-12-12T06:53:32.398Z,49.75
2022-12-12T06:55:03.824Z,49.06
2022-12-12T06:56:35.133Z,49.46
2022-12-12T06:58:06.626Z,48.70
2022-12-12T06:59:37.941Z,46.36
2022-12-12T07:01:10.018Z,49.48
2022-12-12T07:02:41.687Z,49.19
2022-12-12T07:04:12.871Z,50.42
2022-12-12T07:05:44.080Z,48.52
2022-12-12T07:07:15.327Z,49.82
2022-12-12T07:08:46.643Z,49.42
2022-12-12T07:10:21.316Z,49.13
2022-12-12T07:11:57.989Z,52.35
2022-12-12T07:13:29.284Z,49.62
2022-12-12T07:15:00.857Z,50.67
2022-12-12T07:16:32.019Z,50.81
2022-12-12T07:18:03.221Z,50.35
2022-12-12T07:19:34.573Z,52.47
2022-12-12T07:21:06.091Z,50.86
2022-12-12T07:22:37.459Z,47.70
2022-12-12T07:24:08.902Z,51.40
2022-12-12T07:25:40.418Z,47.66
2022-12-12T07:27:14.613Z,50.04
2022-12-12T07:28:49.800Z,52.03
2022-12-12T07:30:21.505Z,50.05
2022-12-12T07:31:53.006Z,50.89
2022-12-12T07:33:29.781Z,48.65
2022-12-12T07:35:07.385Z,47.76
2022-12-12T07:36:38.743Z,51.53
2022-12-12T07:38:14.864Z,49.77
2022-12-12T07:39:46.290Z,50.87
2022-12-12T07:41:17.603Z,52.66
2022-12-12T07:42:48.823Z,50.25
2022-12-12T07:44:25.130Z,48.79
2022-12-12T07:46:08.290Z,49.21
2022-12-12T07:47:51.878Z,48.00
2022-12-12T07:49:46.796Z,49.57
2022-12-12T07:51:18.425Z,48.73
2022-12-12T07:52:49.810Z,49.88
2022-12-12T07:54:26.233Z,48.93
2022-12-12T07:56:07.552Z,50.58
2022-12-12T07:57:41.386Z,47.99
2022-12-12T07:59:12.661Z,52.29
2022-12-12T08:00:44.225Z,50.52
2022-12-12T08:02:18.485Z,48.80
2022-12-12T08:03:49.939Z,49.60
2022-12-12T08:05:21.384Z,51.00
2022-12-12T08:06:59.668Z,50.53
2022-12-12T08:08:33.401Z,51.91
2022-12-12T08:10:05.329Z,50.47
2022-12-12T08:11:36.490Z,53.52
2022-12-12T08:13:07.986Z,51.42
2022-12-12T08:14:39.505Z,49.73
2022-12-12T08:16:10.930Z,54.93
2022-12-12T08:17:42.318Z,51.71
2022-12-12T08:19:18.629Z,51.75
2022-12-12T08:20:50.173Z,51.37
2022-12-12T08:22:21.390Z,51.75
2022-12-12T08:23:52.682Z,52.22
2022-12-12T08:25:24.102Z,52.45
2022-12-12T08:26:55.525Z,52.54
2022-12-12T08:28:26.749Z,53.95
2022-12-12T08:29:58.151Z,53.02
2022-12-12T08:31:30.096Z,50.58
2022-12-12T08:33:29.668Z,54.32
2022-12-12T08:35:01.134Z,61.86
2022-12-12T08:36:48.402Z,56.87
2022-12-12T08:38:19.641Z,54.68
2022-12-12T08:40:08.065Z,54.49
2022-12-12T08:41:40.590Z,52.62
2022-12-12T08:43:11.900Z,52.44
2022-12-12T08:44:43.436Z,51.62
2022-12-12T08:46:17.948Z,57.26
2022-12-12T08:47:49.859Z,56.40
2022-12-12T08:49:21.332Z,59.55
2022-12-12T08:50:52.571Z,56.74
2022-12-12T08:52:23.879Z,58.97
2022-12-12T08:53:55.468Z,59.87
2022-12-12T08:55:26.809Z,58.39
2022-12-12T08:56:58.198Z,59.74
2022-12-12T08:58:30.114Z,52.75
2022-12-12T09:00:01.450Z,50.96
2022-12-12T09:01:32.793Z,53.16
2022-12-12T09:03:04.242Z,50.70
2022-12-12T09:04:35.673Z,54.33
2022-12-12T09:06:07.258Z,53.42
2022-12-12T09:07:38.817Z,50.58
2022-12-12T09:09:10.098Z,51.83
2022-12-12T09:10:41.709Z,50.11
2022-12-12T09:12:18.273Z,51.65
2022-12-12T09:13:49.849Z,48.76
2022-12-12T09:15:21.236Z,49.49
2022-12-12T09:16:52.857Z,51.40
2022-12-12T09:18:24.295Z,49.61
2022-12-12T09:19:55.735Z,48.64
2022-12-12T09:21:27.135Z,48.67
2022-12-12T09:22:58.586Z,49.02
2022-12-12T09:24:29.923Z,49.61
2022-12-12T09:26:01.640Z,47.67
2022-12-12T09:27:33.293Z,49.09
2022-12-12T09:29:24.623Z,49.11
2022-12-12T09:30:55.843Z,47.71
2022-12-12T09:32:27.397Z,47.81
2022-12-12T09:33:59.016Z,48.81
2022-12-12T09:35:30.210Z,47.04
2022-12-12T09:37:01.552Z,48.26
2022-12-12T09:38:32.976Z,45.31
2022-12-12T09:40:04.361Z,45.54
2022-12-12T09:41:35.762Z,47.35
2022-12-12T09:43:07.201Z,48.85
2022-12-12T09:44:40.110Z,48.43
2022-12-12T09:46:11.408Z,48.13
2022-12-12T09:47:42.625Z,51.96
2022-12-12T09:49:13.816Z,50.18
2022-12-12T09:50:45.214Z,46.72
2022-12-12T09:52:16.768Z,48.33
2022-12-12T09:53:48.052Z,46.98
2022-12-12T09:55:19.285Z,48.64
2022-12-12T09:56:51.014Z,51.16
2022-12-12T09:58:22.343Z,50.26
2022-12-12T09:59:53.646Z,49.35
2022-12-12T10:01:24.964Z,46.69
2022-12-12T10:02:56.310Z,47.70
2022-12-12T10:04:27.733Z,50.07
2022-12-12T10:06:20.621Z,52.39
2022-12-12T10:08:07.083Z,58.84
2022-12-12T10:09:38.404Z,48.78
2022-12-12T10:11:09.801Z,47.54
2022-12-12T10:12:41.058Z,48.21
2022-12-12T10:14:22.383Z,51.00
2022-12-12T10:15:53.971Z,48.27
2022-12-12T10:17:25.610Z,51.41
2022-12-12T10:18:56.897Z,53.04
2022-12-12T10:20:28.502Z,47.51
2022-12-12T10:21:59.734Z,48.29
2022-12-12T10:23:31.061Z,48.86
2022-12-12T10:25:02.318Z,50.07
2022-12-12T10:26:33.614Z,49.05
2022-12-12T10:28:05.052Z,50.24
2022-12-12T10:29:41.210Z,49.86
2022-12-12T10:31:12.939Z,47.72
2022-12-12T10:32:44.134Z,48.31
2022-12-12T10:34:15.756Z,46.75
2022-12-12T10:35:47.186Z,50.20
2022-12-12T10:37:18.769Z,49.83
2022-12-12T10:38:50.508Z,48.82
2022-12-12T10:40:21.838Z,46.12
2022-12-12T10:41:53.533Z,46.96
2022-12-12T10:43:24.867Z,47.30
2022-12-12T10:44:56.324Z,47.84
2022-12-12T10:46:27.887Z,45.73
2022-12-12T10:47:59.496Z,46.01
2022-12-12T10:49:30.702Z,44.97
2022-12-12T10:51:02.128Z,44.33
2022-12-12T10:52:33.354Z,45.98
2022-12-12T10:54:04.590Z,47.08
2022-12-12T10:55:36.181Z,48.37
2022-12-12T10:57:07.517Z,48.61
2022-12-12T10:58:39.068Z,49.33
2022-12-12T11:00:10.389Z,47.54
2022-12-12T11:02:09.639Z,46.87
2022-12-12T11:03:41.622Z,48.23
2022-12-12T11:05:13.417Z,47.69
2022-12-12T11:06:44.984Z,48.24
2022-12-12T11:08:16.466Z,48.28
2022-12-12T11:09:47.860Z,48.32
2022-12-12T11:11:19.102Z,49.56
2022-12-12T11:12:50.675Z,48.32
2022-12-12T11:14:27.294Z,47.80
2022-12-12T11:15:58.712Z,47.45
2022-12-12T11:17:30.188Z,46.73
2022-12-12T11:19:01.424Z,46.51
2022-12-12T11:20:32.610Z,48.43
2022-12-12T11:22:04.036Z,50.32
2022-12-12T11:23:35.197Z,50.20
2022-12-12T11:25:06.498Z,48.54
2022-12-12T11:26:37.927Z,45.11
2022-12-12T11:28:09.247Z,49.11
2022-12-12T11:29:40.588Z,44.69
2022-12-12T11:31:12.004Z,46.38
2022-12-12T11:32:43.284Z,46.80
2022-12-12T11:34:14.602Z,46.75
2022-12-12T11:35:47.891Z,45.06
2022-12-12T11:37:19.496Z,45.39
2022-12-12T11:38:50.720Z,47.46
2022-12-12T11:40:22.098Z,46.75
2022-12-12T11:41:53.598Z,46.18
2022-12-12T11:43:24.985Z,45.37
2022-12-12T11:44:56.230Z,45.01
2022-12-12T11:46:27.589Z,48.14
2022-12-12T11:48:14.167Z,44.34
2022-12-12T11:49:45.717Z,40.60
2022-12-12T11:51:16.947Z,40.28
2022-12-12T11:53:18.240Z,42.74
2022-12-12T11:55:14.765Z,42.18
2022-12-12T11:56:47.310Z,41.77
2022-12-12T11:58:18.584Z,41.89
2022-12-12T11:59:49.949Z,43.70
2022-12-12T12:01:21.295Z,38.10
2022-12-12T12:02:52.657Z,38.65
2022-12-12T12:04:23.979Z,34.69
2022-12-12T12:05:55.454Z,36.02
2022-12-12T12:07:26.744Z,38.13
2022-12-12T12:08:58.294Z,38.18
2022-12-12T12:10:29.768Z,34.69
2022-12-12T12:12:01.113Z,36.52
2022-12-12T12:13:32.491Z,36.36
2022-12-12T12:15:03.915Z,36.34
2022-12-12T12:16:35.353Z,35.97
2022-12-12T12:18:06.584Z,35.80
2022-12-12T12:19:37.975Z,31.35
2022-12-12T12:21:09.210Z,29.37
2022-12-12T12:22:40.416Z,23.80
2022-12-12T12:24:11.715Z,24.23
2022-12-12T12:25:43.093Z,28.19
2022-12-12T12:27:14.459Z,28.97
2022-12-12T12:28:47.089Z,26.72
2022-12-12T12:30:18.544Z,28.36
2022-12-12T12:31:49.804Z,24.13
2022-12-12T12:33:21.195Z,24.22
2022-12-12T12:34:52.555Z,24.63
2022-12-12T12:36:23.819Z,24.19
2022-12-12T12:37:55.303Z,23.75
2022-12-12T12:39:31.587Z,22.45
2022-12-12T12:41:02.960Z,23.02
2022-12-12T12:42:34.195Z,21.37
2022-12-12T12:44:05.565Z,21.98
2022-12-12T12:45:38.178Z,22.97
2022-12-12T12:47:09.553Z,20.02
2022-12-12T12:48:40.960Z,21.45
2022-12-12T12:50:12.489Z,22.12
2022-12-12T12:51:49.957Z,23.80
2022-12-12T12:53:21.731Z,22.35
2022-12-12T12:54:53.022Z,22.05
2022-12-12T12:56:26.504Z,21.11
2022-12-12T12:57:59.259Z,21.30
2022-12-12T12:59:30.468Z,21.82
2022-12-12T13:01:01.958Z,22.84
2022-12-12T13:02:33.391Z,24.19
2022-12-12T13:04:04.866Z,22.54
2022-12-12T13:05:36.296Z,23.06
2022-12-12T13:07:07.763Z,21.52
2022-12-12T13:08:39.241Z,22.36
2022-12-12T13:10:10.589Z,24.78
2022-12-12T13:11:41.865Z,24.52
2022-12-12T13:13:13.129Z,25.93
2022-12-12T13:14:44.328Z,25.95
2022-12-12T13:16:15.697Z,26.16
2022-12-12T13:17:47.018Z,27.69
2022-12-12T13:19:18.231Z,25.46
2022-12-12T13:20:49.743Z,24.08
2022-12-12T13:22:20.975Z,26.26
2022-12-12T13:23:52.221Z,23.99
2022-12-12T13:25:23.692Z,24.32
2022-12-12T13:26:55.072Z,23.69
2022-12-12T13:28:26.909Z,25.12
2022-12-12T13:29:58.355Z,24.62
2022-12-12T13:31:29.600Z,23.63
2022-12-12T13:33:00.959Z,25.39
2022-12-12T13:34:32.506Z,28.24
2022-12-12T13:36:33.607Z,30.90
2022-12-12T13:38:30.181Z,30.27
2022-12-12T13:40:01.465Z,32.31
2022-12-12T13:41:48.985Z,31.19
2022-12-12T13:43:20.230Z,29.47
2022-12-12T13:44:51.689Z,32.71
2022-12-12T13:46:43.277Z,30.52
2022-12-12T13:48:14.981Z,27.57
2022-12-12T13:49:46.736Z,30.69
2022-12-12T13:51:18.123Z,30.88
2022-12-12T13:52:49.869Z,29.45
2022-12-12T13:54:50.668Z,30.22
2022-12-12T13:56:51.898Z,30.25
2022-12-12T13:58:36.874Z,29.01
2022-12-12T14:00:08.779Z,29.30
2022-12-12T14:01:40.270Z,28.92
2022-12-12T14:03:53.695Z,28.12
2022-12-12T14:05:43.072Z,31.51
2022-12-12T14:07:15.484Z,31.34
2022-12-12T14:08:59.935Z,29.81
2022-12-12T14:10:32.186Z,29.05
2022-12-12T14:12:03.436Z,27.12
2022-12-12T14:43:19.135Z,29.32
2022-12-12T14:44:53.731Z,28.68
2022-12-12T14:46:25.019Z,27.58
2022-12-12T14:47:56.410Z,23.86
2022-12-12T14:49:27.738Z,25.38
2022-12-12T14:50:58.970Z,25.99
2022-12-12T14:52:30.236Z,25.87
2022-12-12T14:54:01.559Z,27.91
2022-12-12T14:55:32.908Z,28.36
2022-12-12T14:57:04.078Z,28.53
2022-12-12T14:58:35.513Z,28.09
2022-12-12T15:00:06.889Z,26.20
2022-12-12T15:01:38.143Z,27.50
2022-12-12T15:03:09.606Z,28.78
2022-12-12T15:04:40.934Z,30.00
2022-12-12T15:06:12.233Z,28.70
2022-12-12T15:07:43.485Z,27.82
2022-12-12T15:09:14.706Z,27.21
2022-12-12T15:10:45.922Z,30.61
2022-12-12T15:12:17.249Z,27.14
2022-12-12T15:13:48.497Z,27.90
2022-12-12T15:15:20.113Z,27.57
2022-12-12T15:16:51.565Z,28.50
2022-12-12T15:18:23.009Z,28.41
2022-12-12T15:19:54.335Z,29.37
2022-12-12T15:21:25.656Z,29.34
2022-12-12T15:22:57.177Z,32.28
2022-12-12T15:24:28.406Z,31.24
2022-12-12T15:25:59.817Z,31.38
2022-12-12T15:27:31.050Z,31.46
2022-12-12T15:29:02.482Z,29.55
2022-12-12T15:30:34.018Z,30.81
2022-12-12T15:32:05.676Z,30.50
2022-12-12T15:35:57.936Z,33.05
2022-12-12T15:37:32.727Z,34.28
2022-12-12T15:39:04.053Z,32.35
2022-12-12T15:40:35.276Z,31.64
2022-12-12T15:42:06.469Z,30.02
2022-12-12T15:43:37.663Z,32.76
2022-12-12T15:45:09.758Z,32.45
2022-12-12T15:46:41.418Z,30.71
2022-12-12T15:48:14.026Z,30.58
2022-12-12T15:49:45.960Z,32.88
2022-12-12T15:51:24.339Z,34.70
2022-12-12T15:52:56.989Z,33.59
2022-12-12T15:54:28.607Z,33.09
2022-12-12T15:56:00.064Z,32.46
2022-12-12T15:57:31.550Z,35.11
2022-12-12T15:59:02.862Z,34.27
2022-12-12T16:00:34.232Z,33.71
2022-12-12T16:02:06.061Z,34.37
2022-12-12T16:03:37.351Z,33.75
2022-12-12T16:05:08.537Z,35.10
2022-12-12T16:06:39.691Z,32.88
2022-12-12T16:08:11.286Z,32.46
2022-12-12T16:09:42.731Z,37.00
2022-12-12T16:11:13.946Z,38.07
2022-12-12T16:12:45.165Z,35.98
2022-12-12T16:14:16.387Z,35.76
2022-12-12T16:15:47.779Z,37.03
2022-12-12T16:17:19.053Z,38.72
2022-12-12T16:18:50.302Z,35.07
2022-12-12T16:20:24.495Z,37.52
2022-12-12T16:22:00.312Z,35.53
2022-12-12T16:23:31.636Z,38.79
2022-12-12T16:25:02.901Z,39.22
2022-12-12T16:26:34.155Z,37.44
2022-12-12T16:28:05.539Z,39.26
2022-12-12T16:29:36.969Z,43.38
2022-12-12T16:31:08.267Z,39.68
2022-12-12T16:32:39.974Z,39.42
2022-12-12T16:34:11.441Z,40.28
2022-12-12T16:36:11.445Z,40.57
2022-12-12T16:37:42.654Z,42.10
2022-12-12T16:39:13.946Z,40.50
2022-12-12T16:40:45.295Z,42.13
2022-12-12T16:42:16.505Z,38.64
2022-12-12T16:43:47.695Z,41.64
2022-12-12T16:45:45.472Z,40.66
2022-12-12T16:47:16.760Z,42.24
2022-12-12T16:48:48.016Z,43.54
2022-12-12T16:50:19.292Z,42.87
2022-12-12T16:51:50.647Z,45.51
2022-12-12T16:53:22.138Z,45.22
2022-12-12T16:55:03.255Z,46.33
2022-12-12T16:56:34.420Z,43.44
2022-12-12T16:58:06.040Z,47.45
2022-12-12T16:59:37.576Z,45.68
2022-12-12T17:01:08.842Z,44.72
2022-12-12T17:02:40.299Z,45.49
2022-12-12T17:04:11.693Z,44.50
2022-12-12T17:05:42.954Z,47.70
2022-12-12T17:07:14.461Z,46.00
2022-12-12T17:08:45.773Z,49.02
2022-12-12T17:10:17.434Z,45.45
2022-12-12T17:11:48.817Z,46.63
2022-12-12T17:13:20.201Z,48.53
2022-12-12T17:14:51.778Z,47.58
2022-12-12T17:16:28.303Z,48.33
2022-12-12T17:17:59.917Z,47.93
2022-12-12T17:19:36.051Z,49.31
2022-12-12T17:21:07.348Z,52.95
2022-12-12T17:22:38.897Z,51.13
2022-12-12T17:24:10.139Z,50.70
2022-12-12T17:25:41.460Z,51.72
2022-12-12T17:27:12.725Z,49.74
2022-12-12T17:28:43.977Z,50.94
2022-12-12T17:30:15.593Z,49.94
2022-12-12T17:31:47.264Z,51.64
2022-12-12T17:33:18.485Z,48.88
2022-12-12T17:34:50.092Z,48.86
2022-12-12T17:36:21.350Z,50.49
2022-12-12T17:37:52.675Z,49.91
2022-12-12T17:39:23.959Z,51.12
2022-12-12T17:40:55.446Z,51.03
2022-12-12T17:42:26.875Z,53.94
2022-12-12T17:43:58.256Z,51.29
2022-12-12T17:45:29.618Z,52.33
2022-12-12T17:47:00.976Z,52.56
2022-12-12T17:48:32.175Z,51.37
2022-12-12T17:50:03.598Z,49.92
2022-12-12T17:51:34.746Z,50.54
2022-12-12T17:53:06.116Z,51.12
2022-12-12T17:54:37.449Z,52.06
2022-12-12T17:56:08.649Z,53.45
2022-12-12T17:57:39.935Z,52.44
2022-12-12T17:59:21.400Z,53.03
2022-12-12T18:00:52.759Z,52.12
2022-12-12T18:02:24.064Z,49.70
2022-12-12T18:04:13.209Z,50.87
2022-12-12T18:05:45.243Z,55.79
2022-12-12T18:07:33.832Z,52.18
2022-12-12T18:09:08.778Z,54.88
2022-12-12T18:11:01.349Z,53.92
2022-12-12T18:14:03.169Z,51.50
2022-12-12T18:15:34.821Z,52.97
2022-12-12T18:17:25.040Z,51.70
2022-12-12T18:18:56.598Z,53.23
2022-12-12T18:20:31.297Z,51.53
2022-12-12T18:22:20.005Z,51.49
2022-12-12T18:23:51.354Z,50.40
2022-12-12T18:26:02.346Z,50.19
2022-12-12T18:27:33.994Z,49.26
2022-12-12T18:29:30.340Z,50.02
2022-12-12T18:31:06.827Z,49.13
2022-12-12T18:32:38.729Z,48.33
2022-12-12T18:34:10.763Z,46.00
2022-12-12T18:35:52.779Z,46.10
2022-12-12T18:37:51.401Z,47.96
2022-12-12T18:39:22.597Z,47.56
2022-12-12T18:40:53.867Z,47.78
2022-12-12T18:42:25.326Z,50.08
2022-12-12T18:43:57.001Z,48.35
2022-12-12T18:45:28.171Z,48.26
2022-12-12T18:46:59.722Z,51.95
2022-12-12T18:48:30.942Z,53.04
2022-12-12T18:50:02.500Z,51.10
2022-12-12T18:51:33.680Z,52.70
2022-12-12T18:53:05.382Z,50.75
2022-12-12T18:54:36.828Z,51.38
2022-12-12T18:56:08.002Z,52.62
2022-12-12T18:57:54.755Z,56.78
2022-12-12T18:59:25.956Z,55.24
2022-12-12T19:00:57.522Z,58.29
2022-12-12T19:02:28.974Z,67.74
2022-12-12T19:04:04.562Z,63.30
2022-12-12T19:05:38.735Z,62.44
2022-12-12T19:07:10.223Z,62.79
2022-12-12T19:08:41.531Z,70.78
2022-12-12T19:10:13.328Z,70.41
2022-12-12T19:11:44.823Z,69.57
2022-12-12T19:13:16.291Z,66.07
2022-12-12T19:15:15.627Z,64.63
2022-12-12T19:16:47.657Z,59.94
2022-12-12T19:18:18.958Z,58.50
2022-12-12T19:19:50.234Z,57.87
2022-12-12T19:21:31.635Z,56.83
2022-12-12T19:23:02.917Z,58.65
2022-12-12T19:24:34.101Z,61.72
2022-12-12T19:26:05.189Z,60.84
2022-12-12T19:27:51.727Z,64.75
2022-12-12T19:29:22.925Z,68.80
2022-12-12T19:30:54.164Z,72.88
2022-12-12T19:32:25.719Z,73.97
2022-12-12T19:33:57.508Z,71.05
2022-12-12T19:35:28.670Z,67.82
2022-12-12T19:36:59.996Z,67.48
2022-12-12T19:38:36.339Z,64.26
2022-12-12T19:40:07.613Z,62.42
2022-12-12T19:41:38.978Z,60.06
2022-12-12T19:43:10.200Z,61.09
2022-12-12T19:44:51.615Z,61.92
2022-12-12T19:46:22.910Z,61.01
2022-12-12T19:47:54.207Z,58.71
2022-12-12T19:49:25.421Z,56.75
2022-12-12T19:50:56.591Z,55.89
2022-12-12T19:52:27.781Z,54.45
2022-12-12T19:53:59.606Z,51.39
2022-12-12T19:55:30.877Z,52.00
2022-12-12T19:57:02.202Z,53.05
2022-12-12T19:58:53.566Z,55.77
2022-12-12T20:00:29.777Z,53.51
2022-12-12T20:02:00.964Z,52.56
2022-12-12T20:03:42.266Z,52.38
2022-12-12T20:05:13.982Z,53.45
2022-12-12T20:06:50.548Z,51.05
2022-12-12T20:08:21.833Z,50.12
2022-12-12T20:09:58.316Z,50.13
2022-12-12T20:11:29.517Z,49.41
2022-12-12T20:13:01.031Z,50.71
2022-12-12T20:14:32.718Z,53.36
2022-12-12T20:16:04.069Z,51.22
2022-12-12T20:17:40.486Z,53.37
2022-12-12T20:19:11.745Z,54.09
2022-12-12T20:20:43.095Z,53.66
2022-12-12T20:22:29.545Z,54.03
2022-12-12T20:24:01.048Z,53.96
2022-12-12T20:25:32.323Z,55.12
2022-12-12T20:27:03.681Z,53.52
2022-12-12T20:28:35.479Z,53.13
2022-12-12T20:30:21.626Z,53.92
2022-12-12T20:31:52.853Z,50.65
2022-12-12T20:33:24.131Z,52.02